EA1AQK
43.16.49N 005.35.99W
IN73EG aprs.fi
zuletzt gehoert:
2021-12-08T10:30:52Z
zuerst gehoert:
2020-02-10T15:01:15Z

APRS Samartín del Rei Aurelio [IN73EG], 0 Stunde(n), EA1AQK [12:57:34, 0s].
EA1FLQ 43.22.00N 005.36.35WIN73EI 10.623km 354°N11:02:42ZMMDVM DVMega 439.9750/439.9750 CC1
EB1DGC 43.12.60N 005.45.59WIN73CF 15.142km 243°WSW11:35:10ZMMDVM MMDVM HS Hat 433.4500/433.4500 CC1
EA1IMW 43.14.36N 005.46.93WIN73CF 15.712km 257°WSW11:03:31ZGRUPO RADIO GALENA (GRG) 430.4500/430.4500 CC1
ED1ZAD 43.07.90N 005.38.52WIN73ED 16.033km 194°SSW11:04:24ZED1ZAD-3 APRS Digi/Igate(3ED1ZAD-3)
EA1JBL 43.12.28N 005.47.42WIN73CE 17.616km 245°WSW11:35:10ZMMDVM DVMega 435.3000/435.3000 CC1
EA1HWA 43.12.00N 005.47.40WIN73CE 17.813km 244°WSW11:02:54ZMMDVM MMDVM HS Hat 433.4500/433.4500 CC1
EA1HWX 43.19.29N 005.50.96WIN73BH 21.466km 285°WNW11:02:28ZDMO - UHF 439.7250/431.0000 CC11
EC1AE 43.23.28N 005.48.42WIN73CJ 21.619km 307°NW11:05:53Z`EC1AE - FM & Digital C4FM._%(3EC1AE-9)
ED1ZAS 43.27.52N 005.40.17WIN73DL 21.717km 343°NNW11:03:47ZRD985 438.2250/430.6250 CC1
LEHU 43.22.63N 005.49.57WIN73CJ 22.210km 302°WNW11:34:00ZHelipuerto del HUCA: LEAS 091030Z 27027G37KT 240V300 5000 -RA SCT015 BKN030 12/10 Q1019 RERA TEMPO 3000 RA=
EA1L 43.20.38N 005.51.13WIN73BI 22.294km 290°WNW11:55:49ZWind 260°/005kn, Böen bis 012kn, Temp 15.00c, Regen 1.0mm, letzte 24h 4.6mm, seit 0h 4.6mm, Baro 1017.5h, Hum: 0%(3EA1L-13)
ea1l@ure.es V=13.6V,T=??.?C(2EA1L)
ED1ZAE 43.27.99N 005.40.54WIN73DL 22.677km 343°NNW11:17:54Z2m Voice 145.5875 -0.600 Mhz(3ED1ZAE-C)
WIDE3-3 ESAS3-3 IN73DL WWW.EA1URG.ORG(2ED1ZAE-3)
EA1ABW 43.24.77N 005.47.77WIN73CJ 22.736km 314°NW11:34:25ZMMDVM MMDVM HS Hat 439.8250/439.8250 CC1
EA1RCG 43.09.45N 005.49.78WIN73CD 22.975km 237°WSW11:35:22ZGRUPO RADIO GALENA (GRG) 430.4500/430.4500 CC1
33D00 43.21.63N 005.51.13WIN73BI 23.162km 295°WNW11:03:01Z33-D-00 Protección Civil REMER / Delegación del Gobierno en Asturias
EA1IPU 43.26.21N 005.46.62WIN73CK 23.643km 321°NW11:34:08ZMMDVM MMDVM HS Hat 439.8000/439.8000 CC1
EA1HJA 43.21.47N 005.52.09WIN73BI 24.240km 293°WNW11:52:23ZEA1HJA@URE.ES(3EA1HJA-2)
IN73FL WX3IN1+ 2.0 - V=14.0V,TX TEMP=42.5C(2EA1HJA)
EA1YR 43.22.09N 005.51.86WIN73BI 24.437km 296°WNW11:03:24ZMMDVM DVS 434.3500/434.3500 CC1
EB1GEM 43.30.00N 005.36.07WIN73EM 25.423km 359°N11:43:37ZWX3in1Plus2.0 U=13.3V,T=??.?C/??.?F(3EB1GEM-3)
LEMR 43.25.83N 005.49.60WIN73CK 25.863km 313°NW11:34:03ZAerodromo de la Morgal: LEAS 091030Z 27027G37KT 240V300 5000 -RA SCT015 BKN030 12/10 Q1019 RERA TEMPO 3000 RA=
EA1FHR 43.28.72N 005.26.41WIN73GL 26.131km 28°NNE11:02:33ZMMDVM MMDVM HS Hat 439.1500/439.1500 CC1
ED1ZAU 43.23.04N 005.52.75WIN73BJ 26.299km 298°WNW11:03:38ZRD625 438.5000/430.9000 CC1
LEGM 43.26.15N 005.49.84WIN73CK 26.507km 314°NW11:33:58ZHelipuerto de La Morgal: LEAS 091030Z 27027G37KT 240V300 5000 -RA SCT015 BKN030 12/10 Q1019 RERA TEMPO 3000 RA=
EA1HWD 43.28.96N 005.26.30WIN73GL 26.599km 28°NNE11:02:26Z144.575FM Local frecuency VHF. 434.2500/434.2500 CC1
EA1JAY 43.29.33N 005.26.78WIN73GL 26.931km 26°NNE11:34:06Z434.525MHz Nodo TETRA DMO(3EA1JAY-4)
EA1JAY(2EA1JAY-2)
EA1DZR 43.31.48N 005.40.00WIN73EM 28.757km 348°NNW11:03:35ZMMDVM DVS 434.3500/434.3500 CC1
EA1IEJ 43.31.81N 005.40.25WIN73DM 29.444km 348°NNW11:02:28ZMMDVM MMDVM HS Hat 438.8500/438.8500 CC6
EB1TK 43.32.22N 005.42.32WIN73DM 30.886km 343°NNW11:27:54ZWind 237°/016kn, Böen bis 022kn, Temp 12.78c, Regen 0.5mm, letzte 24h 23.6mm, seit 0h 23.6mm, Baro 1020.9h, Hum: 91%(3EB1TK-13)
LEEL 43.32.98N 005.41.71WIN73DN 31.999km 345°NNW11:34:03ZHelipuerto de El Musel: LEAS 091030Z 27027G37KT 240V300 5000 -RA SCT015 BKN030 12/10 Q1019 RERA TEMPO 3000 RA=
ED1ZAY 43.29.47N 005.56.54WIN73AL 37.329km 311°NW11:03:46ZRD625 438.3000/430.7000 CC1
EA1JBU 43.30.80N 005.16.20WIN73IM 37.466km 44°NE11:15:18ZEA1JBU(3EA1JBU-2)
EA1JBE 43.30.90N 005.16.15WIN73IM 37.655km 44°NE11:34:02ZEA1JBU(3EA1JBE-13)
MAIN QTH http://qrz.com/db/ea1jbe(2EA1JBE-1)
ED1ZBF 43.19.16N 005.06.74WIN73KH 39.263km 82°E11:03:42ZRD625 438.4750/430.8750 CC1
EA1AHA 43.32.74N 005.54.36WIN73BN 39.591km 320°NW11:34:56ZWind 315°/036kn, Böen bis 042kn, Temp 14.44c, Regen 18.0mm, letzte 24h 204.7mm, seit 0h 204.7mm, Baro 1020.1h, Hum: 73%(3EA1AHA-13)
MMDVM MMDVM HS Hat 432.0000/432.0000 CC1(2EA1AHA)
EB1AD 43.28.14N 005.10.44WIN73JL 40.359km 57°ENE11:56:55ZCarlos(3EB1AD-9)
EA1DHE 43.33.98N 005.58.57WIN73AN 45.071km 317°NW11:03:27ZMMDVM DVS 434.3500/434.3500 CC1

aprs.pl 5.0.011w DL3EL © 2006-2021 [1199289]